createdAt,value
2022-10-18T00:00:59.629Z,18.48
2022-10-18T00:03:27.092Z,14.93
2022-10-18T00:05:54.648Z,15.43
2022-10-18T00:08:22.173Z,15.27
2022-10-18T00:10:49.915Z,17.15
2022-10-18T00:13:18.020Z,16.08
2022-10-18T00:15:53.362Z,17.38
2022-10-18T00:18:20.993Z,17.70
2022-10-18T00:21:12.414Z,18.42
2022-10-18T00:23:39.989Z,15.73
2022-10-18T00:26:16.499Z,17.88
2022-10-18T00:28:44.901Z,14.80
2022-10-18T00:31:21.437Z,19.20
2022-10-18T00:33:52.475Z,15.30
2022-10-18T00:36:20.398Z,14.93
2022-10-18T00:38:48.520Z,16.38
2022-10-18T00:41:22.220Z,15.98
2022-10-18T00:44:01.692Z,14.40
2022-10-18T00:46:32.077Z,15.68
2022-10-18T00:49:02.490Z,16.38
2022-10-18T00:51:51.981Z,13.70
2022-10-18T00:54:20.782Z,13.98
2022-10-18T00:56:48.286Z,14.27
2022-10-18T00:59:17.581Z,13.48
2022-10-18T01:01:46.125Z,17.90
2022-10-18T01:04:18.017Z,15.48
2022-10-18T01:07:13.295Z,13.55
2022-10-18T01:10:01.864Z,14.13
2022-10-18T01:12:47.502Z,14.23
2022-10-18T01:15:20.547Z,13.27
2022-10-18T01:18:14.758Z,16.83
2022-10-18T01:21:00.650Z,13.80
2022-10-18T01:24:01.951Z,15.18
2022-10-18T01:26:38.490Z,16.08
2022-10-18T01:29:28.068Z,14.70
2022-10-18T01:32:12.767Z,17.33
2022-10-18T01:34:43.760Z,14.27
2022-10-18T01:37:17.052Z,15.27
2022-10-18T01:39:48.096Z,16.92
2022-10-18T01:42:19.226Z,17.05
2022-10-18T01:47:15.841Z,17.67
2022-10-18T01:49:43.296Z,17.55
2022-10-18T01:52:15.579Z,17.75
2022-10-18T01:54:48.471Z,15.10
2022-10-18T01:57:21.823Z,13.52
2022-10-18T02:00:05.956Z,15.55
2022-10-18T02:02:42.449Z,15.57
2022-10-18T02:05:12.533Z,15.57
2022-10-18T02:08:21.972Z,15.05
2022-10-18T02:11:03.792Z,19.60
2022-10-18T02:13:37.143Z,13.82
2022-10-18T02:16:10.428Z,19.63
2022-10-18T02:18:42.424Z,16.05
2022-10-18T02:21:13.486Z,12.82
2022-10-18T02:26:08.284Z,15.80
2022-10-18T02:28:35.710Z,15.18
2022-10-18T02:31:27.559Z,14.50
2022-10-18T02:34:04.856Z,13.45
2022-10-18T02:36:36.287Z,16.77
2022-10-18T02:39:11.836Z,13.63
2022-10-18T02:41:39.428Z,13.65
2022-10-18T02:44:06.859Z,16.13
2022-10-18T02:46:34.916Z,17.38
2022-10-18T02:49:02.382Z,12.95
2022-10-18T02:51:29.817Z,14.90
2022-10-18T02:53:57.231Z,13.43
2022-10-18T02:56:24.731Z,14.75
2022-10-18T02:58:52.091Z,14.70
2022-10-18T03:01:19.570Z,14.65
2022-10-18T03:03:47.136Z,16.77
2022-10-18T03:06:14.567Z,16.05
2022-10-18T03:08:41.970Z,13.70
2022-10-18T03:11:09.378Z,14.75
2022-10-18T03:13:36.949Z,14.93
2022-10-18T03:16:04.524Z,14.48
2022-10-18T03:18:31.900Z,13.15
2022-10-18T03:20:59.284Z,14.60
2022-10-18T03:23:26.620Z,15.27
2022-10-18T03:25:54.046Z,18.75
2022-10-18T03:28:21.481Z,14.88
2022-10-18T03:30:48.832Z,17.42
2022-10-18T03:33:16.273Z,13.38
2022-10-18T03:35:43.677Z,11.82
2022-10-18T03:38:11.085Z,14.93
2022-10-18T03:40:38.500Z,16.08
2022-10-18T03:43:05.934Z,16.67
2022-10-18T03:45:33.310Z,14.40
2022-10-18T03:48:00.781Z,14.10
2022-10-18T03:50:28.165Z,15.30
2022-10-18T03:52:55.746Z,14.02
2022-10-18T03:55:23.149Z,12.02
2022-10-18T03:57:50.938Z,13.13
2022-10-18T04:00:18.411Z,12.18
2022-10-18T04:02:45.871Z,15.95
2022-10-18T04:05:14.289Z,18.05
2022-10-18T04:07:41.718Z,13.82
2022-10-18T04:10:09.350Z,15.60
2022-10-18T04:12:36.761Z,14.60
2022-10-18T04:15:04.384Z,17.20
2022-10-18T04:17:31.988Z,16.45
2022-10-18T04:19:59.609Z,13.93
2022-10-18T04:22:27.019Z,15.40
2022-10-18T04:24:54.480Z,17.92
2022-10-18T04:27:21.888Z,15.30
2022-10-18T04:29:49.446Z,15.30
2022-10-18T04:32:16.914Z,16.85
2022-10-18T04:34:44.309Z,15.40
2022-10-18T04:37:11.669Z,14.52
2022-10-18T04:39:39.125Z,17.77
2022-10-18T04:42:06.624Z,16.33
2022-10-18T04:44:34.645Z,17.55
2022-10-18T04:47:02.150Z,17.17
2022-10-18T04:49:29.707Z,17.40
2022-10-18T04:51:57.243Z,21.65
2022-10-18T04:54:26.546Z,17.73
2022-10-18T04:56:56.092Z,14.75
2022-10-18T04:59:23.529Z,14.00
2022-10-18T05:01:51.070Z,20.05
2022-10-18T05:04:18.596Z,13.32
2022-10-18T05:06:46.205Z,14.43
2022-10-18T05:09:13.917Z,13.18
2022-10-18T05:11:41.377Z,15.40
2022-10-18T05:14:10.432Z,15.73
2022-10-18T05:16:37.900Z,20.13
2022-10-18T05:19:06.194Z,19.73
2022-10-18T05:21:34.228Z,16.15
2022-10-18T05:24:01.928Z,13.45
2022-10-18T05:26:29.440Z,12.88
2022-10-18T05:28:57.072Z,16.70
2022-10-18T05:31:24.539Z,13.60
2022-10-18T05:33:52.054Z,14.02
2022-10-18T05:36:19.509Z,14.63
2022-10-18T05:38:48.507Z,14.68
2022-10-18T05:41:16.087Z,18.42
2022-10-18T05:43:43.647Z,15.40
2022-10-18T05:46:15.361Z,17.45
2022-10-18T05:48:44.850Z,15.95
2022-10-18T05:51:12.506Z,14.65
2022-10-18T05:53:39.950Z,15.70
2022-10-18T05:56:08.081Z,14.70
2022-10-18T05:58:35.788Z,17.02
2022-10-18T06:01:05.624Z,16.75
2022-10-18T06:03:33.580Z,17.40
2022-10-18T06:06:02.788Z,14.50
2022-10-18T06:08:30.566Z,13.65
2022-10-18T06:10:58.093Z,15.02
2022-10-18T06:13:25.769Z,17.33
2022-10-18T06:15:57.590Z,14.10
2022-10-18T06:18:25.371Z,13.23
2022-10-18T06:20:59.795Z,12.07
2022-10-18T06:23:28.301Z,12.48
2022-10-18T06:26:04.602Z,10.43
2022-10-18T06:28:34.916Z,10.30
2022-10-18T06:31:03.352Z,11.43
2022-10-18T06:33:36.136Z,12.40
2022-10-18T06:36:10.618Z,12.23
2022-10-18T06:38:38.651Z,12.52
2022-10-18T06:41:07.097Z,10.52
2022-10-18T06:43:35.362Z,10.52
2022-10-18T06:46:05.807Z,12.52
2022-10-18T06:48:33.601Z,13.43
2022-10-18T06:51:03.846Z,14.25
2022-10-18T06:53:33.584Z,13.87
2022-10-18T06:56:10.348Z,11.50
2022-10-18T06:58:38.784Z,16.02
2022-10-18T07:01:16.044Z,13.38
2022-10-18T07:03:44.057Z,11.70
2022-10-18T07:06:14.392Z,13.30
2022-10-18T07:08:42.293Z,12.13
2022-10-18T07:11:32.237Z,8.88
2022-10-18T07:14:03.471Z,10.52
2022-10-18T07:16:32.443Z,11.80
2022-10-18T07:18:59.910Z,13.50
2022-10-18T07:21:28.309Z,10.63
2022-10-18T07:23:56.919Z,14.00
2022-10-18T07:26:30.593Z,11.63
2022-10-18T07:29:05.980Z,10.82
2022-10-18T07:31:33.788Z,10.85
2022-10-18T07:34:01.301Z,11.15
2022-10-18T07:36:28.714Z,10.95
2022-10-18T07:38:56.180Z,14.45
2022-10-18T07:41:23.738Z,12.98
2022-10-18T07:43:52.972Z,8.63
2022-10-18T07:46:22.417Z,9.07
2022-10-18T07:48:50.241Z,14.60
2022-10-18T07:51:19.255Z,9.82
2022-10-18T07:53:46.970Z,11.32
2022-10-18T07:56:17.181Z,11.90
2022-10-18T07:58:45.713Z,10.17
2022-10-18T08:01:14.570Z,10.25
2022-10-18T08:03:42.994Z,13.23
2022-10-18T08:06:12.681Z,10.82
2022-10-18T08:08:41.095Z,10.30
2022-10-18T08:11:15.170Z,9.55
2022-10-18T08:13:43.619Z,10.75
2022-10-18T08:16:13.571Z,12.82
2022-10-18T08:18:41.370Z,16.02
2022-10-18T08:21:10.881Z,12.63
2022-10-18T08:23:38.853Z,12.68
2022-10-18T08:26:11.629Z,11.65
2022-10-18T08:28:39.135Z,12.73
2022-10-18T08:31:10.170Z,13.48
2022-10-18T08:33:39.340Z,12.38
2022-10-18T08:36:08.490Z,12.55
2022-10-18T08:38:37.688Z,10.60
2022-10-18T08:41:35.988Z,10.63
2022-10-18T08:44:22.953Z,11.00
2022-10-18T08:47:00.643Z,12.90
2022-10-18T08:49:47.410Z,13.43
2022-10-18T08:52:26.897Z,14.57
2022-10-18T08:55:11.311Z,10.75
2022-10-18T08:57:38.722Z,9.00
2022-10-18T09:00:20.040Z,10.40
2022-10-18T09:02:56.332Z,9.93
2022-10-18T09:05:49.991Z,8.45
2022-10-18T09:08:39.116Z,9.93
2022-10-18T09:11:22.137Z,16.52
2022-10-18T09:14:04.736Z,10.70
2022-10-18T09:17:05.884Z,9.18
2022-10-18T09:19:46.100Z,10.10
2022-10-18T09:22:17.789Z,8.43
2022-10-18T09:25:10.602Z,9.93
2022-10-18T09:27:51.449Z,12.52
2022-10-18T09:30:30.378Z,12.13
2022-10-18T09:33:16.788Z,8.88
2022-10-18T09:36:05.167Z,11.25
2022-10-18T09:38:48.315Z,9.57
2022-10-18T09:41:47.357Z,11.23
2022-10-18T09:44:38.753Z,9.82
2022-10-18T09:47:17.100Z,9.63
2022-10-18T09:50:01.621Z,9.57
2022-10-18T09:52:37.297Z,10.85
2022-10-18T09:55:13.624Z,11.90
2022-10-18T09:57:46.777Z,7.80
2022-10-18T10:00:23.007Z,7.10
2022-10-18T10:02:50.431Z,9.75
2022-10-18T10:05:18.344Z,11.65
2022-10-18T10:07:47.898Z,9.35
2022-10-18T10:10:24.668Z,8.90
2022-10-18T10:13:24.684Z,13.10
2022-10-18T10:15:57.639Z,8.52
2022-10-18T10:18:31.621Z,11.30
2022-10-18T10:21:07.711Z,10.63
2022-10-18T10:23:55.497Z,10.60
2022-10-18T10:26:25.927Z,13.60
2022-10-18T10:28:53.572Z,13.30
2022-10-18T10:31:37.619Z,12.38
2022-10-18T10:34:29.270Z,8.63
2022-10-18T10:36:56.911Z,8.95
2022-10-18T10:39:25.005Z,8.48
2022-10-18T10:41:58.606Z,7.82
2022-10-18T10:44:32.171Z,11.68
2022-10-18T10:47:00.107Z,9.75
2022-10-18T10:49:42.536Z,9.57
2022-10-18T10:52:27.440Z,8.32
2022-10-18T10:55:23.233Z,8.48
2022-10-18T10:57:52.991Z,10.68
2022-10-18T11:00:52.925Z,10.75
2022-10-18T11:03:29.027Z,8.85
2022-10-18T11:06:00.531Z,8.75
2022-10-18T11:08:38.378Z,9.88
2022-10-18T11:11:41.554Z,13.32
2022-10-18T11:14:27.462Z,22.15
2022-10-18T11:17:14.068Z,10.95
2022-10-18T11:20:12.643Z,8.27
2022-10-18T11:22:46.560Z,9.65
2022-10-18T11:25:16.727Z,8.43
2022-10-18T11:27:44.020Z,8.00
2022-10-18T11:30:26.801Z,8.27
2022-10-18T11:33:02.191Z,8.80
2022-10-18T11:36:10.563Z,7.05
2022-10-18T11:38:40.728Z,7.85
2022-10-18T11:41:34.931Z,10.68
2022-10-18T11:44:10.314Z,21.48
2022-10-18T11:46:46.554Z,10.40
2022-10-18T11:49:37.773Z,26.80
2022-10-18T11:52:41.288Z,14.32
2022-10-18T11:55:39.527Z,8.00
2022-10-18T11:58:42.198Z,7.50
2022-10-18T12:01:35.119Z,8.23
2022-10-18T12:04:07.825Z,12.65
2022-10-18T12:06:38.939Z,8.63
2022-10-18T12:09:31.132Z,9.07
2022-10-18T12:12:08.965Z,11.85
2022-10-18T12:14:56.895Z,7.60
2022-10-18T12:17:51.462Z,10.10
2022-10-18T12:20:31.495Z,8.00
2022-10-18T12:23:17.699Z,11.30
2022-10-18T12:25:54.732Z,7.18
2022-10-18T12:28:22.072Z,7.10
2022-10-18T12:31:08.295Z,11.15
2022-10-18T12:33:39.782Z,6.90
2022-10-18T12:36:35.476Z,6.25
2022-10-18T12:39:07.627Z,9.32
2022-10-18T12:41:36.638Z,8.73
2022-10-18T12:44:25.149Z,16.50
2022-10-18T12:46:55.134Z,29.50
2022-10-18T12:49:39.023Z,8.98
2022-10-18T12:52:23.799Z,12.00
2022-10-18T12:55:13.927Z,13.15
2022-10-18T12:57:53.429Z,13.73
2022-10-18T13:00:29.969Z,7.68
2022-10-18T13:03:09.946Z,7.38
2022-10-18T13:05:55.526Z,7.80
2022-10-18T13:08:30.477Z,12.25
2022-10-18T13:11:12.980Z,11.80
2022-10-18T13:14:07.788Z,15.00
2022-10-18T13:16:59.305Z,14.35
2022-10-18T13:19:32.629Z,12.85
2022-10-18T13:22:24.078Z,10.52
2022-10-18T13:25:14.360Z,8.30
2022-10-18T13:28:29.240Z,12.25
2022-10-18T13:31:01.694Z,10.40
2022-10-18T13:33:39.557Z,8.63
2022-10-18T13:36:25.106Z,9.27
2022-10-18T13:38:58.161Z,12.02
2022-10-18T13:41:34.442Z,11.55
2022-10-18T13:44:02.947Z,12.02
2022-10-18T13:46:33.392Z,12.10
2022-10-18T13:49:22.683Z,10.10
2022-10-18T13:52:20.851Z,11.05
2022-10-18T13:55:03.074Z,15.57
2022-10-18T13:57:49.300Z,19.65
2022-10-18T14:00:25.214Z,17.42
2022-10-18T14:03:31.917Z,16.08
2022-10-18T14:06:40.219Z,17.08
2022-10-18T14:09:26.443Z,14.52
2022-10-18T14:12:22.279Z,15.00
2022-10-18T14:15:04.112Z,17.30
2022-10-18T14:17:44.875Z,30.20
2022-10-18T14:20:28.553Z,33.15
2022-10-18T14:23:20.463Z,29.38
2022-10-18T14:25:48.394Z,26.10
2022-10-18T14:28:27.455Z,20.02
2022-10-18T14:31:00.344Z,25.27
2022-10-18T14:33:27.800Z,24.98
2022-10-18T14:36:14.658Z,25.40
2022-10-18T14:38:59.349Z,28.00
2022-10-18T14:41:34.649Z,58.05
2022-10-18T14:44:27.840Z,51.67
2022-10-18T14:47:02.835Z,80.32
2022-10-18T14:49:31.004Z,57.33
2022-10-18T14:52:00.536Z,27.35
2022-10-18T14:54:33.917Z,28.73
2022-10-18T14:57:03.255Z,44.88
2022-10-18T14:59:34.866Z,51.28
2022-10-18T15:02:11.995Z,46.28
2022-10-18T15:04:39.431Z,105.97
2022-10-18T15:07:14.811Z,131.30
2022-10-18T15:09:43.596Z,73.15
2022-10-18T15:12:14.536Z,57.15
2022-10-18T15:17:35.343Z,104.68
2022-10-18T15:20:18.864Z,104.35
2022-10-18T15:22:47.047Z,100.13
2022-10-18T15:25:17.251Z,111.47
2022-10-18T15:27:56.758Z,128.45
2022-10-18T15:30:44.044Z,95.30
2022-10-18T15:33:23.729Z,70.35
2022-10-18T15:35:53.364Z,65.80
2022-10-18T15:38:27.820Z,74.45
2022-10-18T15:40:55.697Z,101.18
2022-10-18T15:43:28.764Z,99.20
2022-10-18T15:46:06.743Z,103.18
2022-10-18T15:48:41.922Z,105.93
2022-10-18T15:51:16.921Z,134.18
2022-10-18T15:53:51.103Z,140.77
2022-10-18T15:56:37.646Z,175.90
2022-10-18T15:59:21.113Z,191.88
2022-10-18T16:01:49.217Z,171.98
2022-10-18T16:04:31.626Z,243.52
2022-10-18T16:07:00.264Z,421.38
2022-10-18T16:09:29.273Z,432.92
2022-10-18T16:11:58.481Z,558.33
2022-10-18T16:14:26.575Z,473.50
2022-10-18T16:17:03.251Z,425.90
2022-10-18T16:19:32.181Z,82.35
2022-10-18T16:22:06.018Z,57.15
2022-10-18T16:24:34.281Z,792.55
2022-10-18T16:27:01.875Z,160.02
2022-10-18T16:29:32.218Z,63.05
2022-10-18T16:32:01.425Z,58.42
2022-10-18T16:34:28.984Z,61.15
2022-10-18T16:36:56.622Z,60.13
2022-10-18T16:39:24.961Z,65.75
2022-10-18T16:41:52.745Z,114.18
2022-10-18T16:44:20.307Z,127.65
2022-10-18T16:46:51.100Z,88.72
2022-10-18T16:49:24.598Z,76.72
2022-10-18T16:51:53.900Z,56.80
2022-10-18T16:54:21.570Z,63.72
2022-10-18T16:56:50.412Z,68.63
2022-10-18T16:59:29.073Z,43.38
2022-10-18T17:01:56.713Z,48.45
2022-10-18T17:04:24.611Z,72.57
2022-10-18T17:06:54.621Z,38.67
2022-10-18T17:09:22.119Z,64.40
2022-10-18T17:11:50.184Z,75.05
2022-10-18T17:14:17.592Z,38.95
2022-10-18T17:16:47.087Z,55.47
2022-10-18T17:19:18.177Z,46.58
2022-10-18T17:21:45.614Z,49.00
2022-10-18T17:24:12.962Z,43.67
2022-10-18T17:26:40.427Z,47.58
2022-10-18T17:29:11.189Z,50.88
2022-10-18T17:31:38.607Z,54.65
2022-10-18T17:34:06.080Z,61.50
2022-10-18T17:36:34.037Z,50.38
2022-10-18T17:39:02.174Z,55.97
2022-10-18T17:41:29.605Z,41.00
2022-10-18T17:43:57.462Z,41.38
2022-10-18T17:46:24.934Z,47.55
2022-10-18T17:48:53.248Z,36.45
2022-10-18T17:51:20.798Z,46.90
2022-10-18T17:53:48.323Z,36.05
2022-10-18T17:56:16.601Z,37.75
2022-10-18T17:58:44.022Z,39.75
2022-10-18T18:01:15.001Z,27.75
2022-10-18T18:03:42.913Z,26.92
2022-10-18T18:06:21.762Z,30.92
2022-10-18T18:08:50.344Z,25.70
2022-10-18T18:11:18.147Z,22.40
2022-10-18T18:13:45.698Z,26.08
2022-10-18T18:16:17.675Z,21.00
2022-10-18T18:18:45.945Z,23.40
2022-10-18T18:21:13.734Z,29.45
2022-10-18T18:23:42.042Z,24.20
2022-10-18T18:26:09.688Z,21.98
2022-10-18T18:28:37.509Z,21.80
2022-10-18T18:31:11.611Z,25.58
2022-10-18T18:33:39.242Z,28.27
2022-10-18T18:36:07.543Z,33.50
2022-10-18T18:38:38.238Z,34.47
2022-10-18T18:41:17.781Z,33.65
2022-10-18T18:44:04.530Z,26.95
2022-10-18T18:46:36.912Z,31.08
2022-10-18T18:49:06.071Z,27.63
2022-10-18T18:51:34.072Z,26.88
2022-10-18T18:54:01.728Z,26.08
2022-10-18T18:56:29.323Z,26.90
2022-10-18T18:58:59.376Z,34.05
2022-10-18T19:01:29.968Z,29.02
2022-10-18T19:03:59.196Z,29.02
2022-10-18T19:06:29.648Z,33.08
2022-10-18T19:09:02.974Z,25.25
2022-10-18T19:11:36.048Z,24.65
2022-10-18T19:14:04.985Z,22.88
2022-10-18T19:16:35.520Z,21.85
2022-10-18T19:19:13.422Z,25.13
2022-10-18T19:21:46.381Z,20.73
2022-10-18T19:24:14.329Z,20.70
2022-10-18T19:26:47.396Z,22.40
2022-10-18T19:29:35.469Z,22.35
2022-10-18T19:32:07.290Z,24.25
2022-10-18T19:34:35.909Z,23.48
2022-10-18T19:37:03.909Z,17.92
2022-10-18T19:39:34.163Z,20.23
2022-10-18T19:42:05.370Z,21.73
2022-10-18T19:47:01.951Z,19.75
2022-10-18T19:49:29.531Z,25.13
2022-10-18T19:51:57.455Z,23.45
2022-10-18T19:54:25.739Z,19.83
2022-10-18T19:56:53.369Z,24.42
2022-10-18T19:59:22.400Z,20.58
2022-10-18T20:01:50.419Z,22.95
2022-10-18T20:04:18.285Z,21.55
2022-10-18T20:06:45.882Z,22.00
2022-10-18T20:09:17.741Z,21.55
2022-10-18T20:11:48.010Z,22.20
2022-10-18T20:14:15.449Z,21.48
2022-10-18T20:16:42.951Z,21.83
2022-10-18T20:19:11.808Z,21.33
2022-10-18T20:21:40.081Z,21.10
2022-10-18T20:24:09.455Z,25.33
2022-10-18T20:26:36.963Z,23.80
2022-10-18T20:29:05.085Z,22.23
2022-10-18T20:31:37.223Z,23.33
2022-10-18T20:34:08.011Z,22.10
2022-10-18T20:36:35.879Z,27.48
2022-10-18T20:39:05.342Z,24.75
2022-10-18T20:41:35.910Z,23.65
2022-10-18T20:44:07.245Z,28.20
2022-10-18T20:46:37.597Z,24.30
2022-10-18T20:49:06.932Z,24.08
2022-10-18T20:51:35.486Z,24.65
2022-10-18T20:56:34.441Z,27.42
2022-10-18T20:59:02.853Z,26.70
2022-10-18T21:01:32.545Z,31.20
2022-10-18T21:04:04.957Z,26.88
2022-10-18T21:06:37.460Z,29.38
2022-10-18T21:09:11.084Z,26.38
2022-10-18T21:11:40.660Z,26.88
2022-10-18T21:14:10.998Z,28.75
2022-10-18T21:16:38.401Z,32.25
2022-10-18T21:19:18.136Z,28.60
2022-10-18T21:21:49.622Z,28.05
2022-10-18T21:24:18.295Z,22.83
2022-10-18T21:26:45.850Z,30.42
2022-10-18T21:29:15.209Z,25.42
2022-10-18T21:31:46.356Z,26.83
2022-10-18T21:34:15.928Z,27.60
2022-10-18T21:36:45.533Z,25.38
2022-10-18T21:39:18.778Z,26.80
2022-10-18T21:41:46.933Z,25.48
2022-10-18T21:44:15.186Z,27.88
2022-10-18T21:46:43.410Z,26.52
2022-10-18T21:49:10.966Z,26.65
2022-10-18T21:51:39.117Z,29.73
2022-10-18T21:54:11.305Z,26.70
2022-10-18T21:56:38.954Z,33.88
2022-10-18T21:59:06.545Z,30.80
2022-10-18T22:01:38.732Z,28.85
2022-10-18T22:04:08.525Z,24.80
2022-10-18T22:06:36.871Z,32.42
2022-10-18T22:09:07.448Z,29.55
2022-10-18T22:11:38.597Z,30.30
2022-10-18T22:16:33.518Z,30.63
2022-10-18T22:19:02.647Z,29.42
2022-10-18T22:21:30.495Z,37.10
2022-10-18T22:23:58.934Z,35.33
2022-10-18T22:26:29.411Z,33.70
2022-10-18T22:29:01.741Z,34.25
2022-10-18T22:31:32.249Z,36.70
2022-10-18T22:34:05.323Z,34.20
2022-10-18T22:36:34.525Z,33.97
2022-10-18T22:39:02.764Z,35.13
2022-10-18T22:41:30.489Z,32.30
2022-10-18T22:43:59.831Z,28.80
2022-10-18T22:46:30.418Z,32.72
2022-10-18T22:48:58.000Z,34.30
2022-10-18T22:51:25.653Z,38.55
2022-10-18T22:53:53.502Z,35.92
2022-10-18T22:56:22.509Z,39.10
2022-10-18T22:58:50.578Z,35.80
2022-10-18T23:01:21.143Z,37.42
2022-10-18T23:03:57.084Z,33.55
2022-10-18T23:06:33.095Z,34.42
2022-10-18T23:09:06.537Z,35.38
2022-10-18T23:11:35.052Z,34.90
2022-10-18T23:14:04.535Z,38.47
2022-10-18T23:16:32.612Z,38.33
2022-10-18T23:19:00.449Z,34.08
2022-10-18T23:21:29.219Z,34.65
2022-10-18T23:23:57.414Z,35.55
2022-10-18T23:26:27.565Z,36.65
2022-10-18T23:28:56.231Z,36.43
2022-10-18T23:31:29.576Z,36.40
2022-10-18T23:33:59.448Z,36.03
2022-10-18T23:36:27.660Z,33.58
2022-10-18T23:38:55.616Z,36.45
2022-10-18T23:41:23.497Z,31.10
2022-10-18T23:43:51.321Z,30.73
2022-10-18T23:46:19.979Z,35.50
2022-10-18T23:48:47.922Z,35.75
2022-10-18T23:51:15.929Z,31.25
2022-10-18T23:53:43.766Z,33.03
2022-10-18T23:56:13.424Z,34.67
2022-10-18T23:58:41.486Z,30.77
